sensor_id;sensor_type;location;lat;lon;timestamp;temperature;humidity
45383;DHT22;42455;51.660;5.824;2024-01-25T00:02:07;10.8;92.5
45383;DHT22;42455;51.660;5.824;2024-01-25T00:07:13;10.8;92.5
45383;DHT22;42455;51.660;5.824;2024-01-25T00:12:19;10.7;92.5
45383;DHT22;42455;51.660;5.824;2024-01-25T00:17:25;10.7;92.0
45383;DHT22;42455;51.660;5.824;2024-01-25T00:22:32;10.7;92.0
45383;DHT22;42455;51.660;5.824;2024-01-25T00:27:38;10.6;92.0
45383;DHT22;42455;51.660;5.824;2024-01-25T00:32:44;10.6;92.0
45383;DHT22;42455;51.660;5.824;2024-01-25T00:37:50;10.5;92.0
45383;DHT22;42455;51.660;5.824;2024-01-25T00:42:57;10.4;92.0
45383;DHT22;42455;51.660;5.824;2024-01-25T00:48:03;10.4;92.0
45383;DHT22;42455;51.660;5.824;2024-01-25T00:53:09;10.3;92.0
45383;DHT22;42455;51.660;5.824;2024-01-25T00:58:15;10.2;92.0
45383;DHT22;42455;51.660;5.824;2024-01-25T01:03:22;10.2;92.0
45383;DHT22;42455;51.660;5.824;2024-01-25T01:08:28;10.1;92.0
45383;DHT22;42455;51.660;5.824;2024-01-25T01:13:34;10.0;92.0
45383;DHT22;42455;51.660;5.824;2024-01-25T01:18:40;9.9;92.0
45383;DHT22;42455;51.660;5.824;2024-01-25T01:23:46;9.9;92.5
45383;DHT22;42455;51.660;5.824;2024-01-25T01:28:51;9.8;92.5
45383;DHT22;42455;51.660;5.824;2024-01-25T01:33:57;9.8;92.5
45383;DHT22;42455;51.660;5.824;2024-01-25T01:39:04;9.7;92.5
45383;DHT22;42455;51.660;5.824;2024-01-25T01:44:10;9.7;92.5
45383;DHT22;42455;51.660;5.824;2024-01-25T01:49:16;9.6;92.5
45383;DHT22;42455;51.660;5.824;2024-01-25T01:54:23;9.6;92.5
45383;DHT22;42455;51.660;5.824;2024-01-25T01:59:29;9.6;92.5
45383;DHT22;42455;51.660;5.824;2024-01-25T02:04:35;9.5;92.5
45383;DHT22;42455;51.660;5.824;2024-01-25T02:09:41;9.5;93.0
45383;DHT22;42455;51.660;5.824;2024-01-25T02:14:47;9.5;93.0
45383;DHT22;42455;51.660;5.824;2024-01-25T02:19:54;9.4;93.0
45383;DHT22;42455;51.660;5.824;2024-01-25T02:25:00;9.4;93.0
45383;DHT22;42455;51.660;5.824;2024-01-25T02:30:06;9.3;93.0
45383;DHT22;42455;51.660;5.824;2024-01-25T02:35:12;9.3;93.0
45383;DHT22;42455;51.660;5.824;2024-01-25T02:40:18;9.3;93.0
45383;DHT22;42455;51.660;5.824;2024-01-25T02:45:24;9.2;93.0
45383;DHT22;42455;51.660;5.824;2024-01-25T02:50:31;9.1;93.0
45383;DHT22;42455;51.660;5.824;2024-01-25T02:55:37;9.1;93.0
45383;DHT22;42455;51.660;5.824;2024-01-25T03:00:43;9.0;93.0
45383;DHT22;42455;51.660;5.824;2024-01-25T03:05:51;9.0;93.0
45383;DHT22;42455;51.660;5.824;2024-01-25T03:10:55;8.9;93.0
45383;DHT22;42455;51.660;5.824;2024-01-25T03:16:02;8.8;93.0
45383;DHT22;42455;51.660;5.824;2024-01-25T03:21:08;8.8;93.0
45383;DHT22;42455;51.660;5.824;2024-01-25T03:26:15;8.7;93.5
45383;DHT22;42455;51.660;5.824;2024-01-25T03:31:20;8.7;93.5
45383;DHT22;42455;51.660;5.824;2024-01-25T03:36:27;8.6;93.5
45383;DHT22;42455;51.660;5.824;2024-01-25T03:41:33;8.6;93.5
45383;DHT22;42455;51.660;5.824;2024-01-25T03:46:39;8.5;93.5
45383;DHT22;42455;51.660;5.824;2024-01-25T03:51:45;8.5;93.5
45383;DHT22;42455;51.660;5.824;2024-01-25T03:56:51;8.4;93.5
45383;DHT22;42455;51.660;5.824;2024-01-25T04:01:58;8.3;93.5
45383;DHT22;42455;51.660;5.824;2024-01-25T04:07:04;8.3;94.0
45383;DHT22;42455;51.660;5.824;2024-01-25T04:12:10;8.2;94.0
45383;DHT22;42455;51.660;5.824;2024-01-25T04:17:16;8.2;94.0
45383;DHT22;42455;51.660;5.824;2024-01-25T04:22:22;8.1;94.0
45383;DHT22;42455;51.660;5.824;2024-01-25T04:27:28;8.1;94.0
45383;DHT22;42455;51.660;5.824;2024-01-25T04:32:35;8.1;94.0
45383;DHT22;42455;51.660;5.824;2024-01-25T04:37:41;8.0;94.0
45383;DHT22;42455;51.660;5.824;2024-01-25T04:42:47;7.9;94.5
45383;DHT22;42455;51.660;5.824;2024-01-25T04:47:53;7.9;94.5
45383;DHT22;42455;51.660;5.824;2024-01-25T04:53:01;7.8;94.5
45383;DHT22;42455;51.660;5.824;2024-01-25T04:58:06;7.8;94.5
45383;DHT22;42455;51.660;5.824;2024-01-25T05:03:12;7.8;94.5
45383;DHT22;42455;51.660;5.824;2024-01-25T05:08:19;7.7;94.5
45383;DHT22;42455;51.660;5.824;2024-01-25T05:13:24;7.7;95.0
45383;DHT22;42455;51.660;5.824;2024-01-25T05:18:31;7.6;95.0
45383;DHT22;42455;51.660;5.824;2024-01-25T05:23:37;7.6;95.0
45383;DHT22;42455;51.660;5.824;2024-01-25T05:28:43;7.6;95.0
45383;DHT22;42455;51.660;5.824;2024-01-25T05:33:49;7.5;95.0
45383;DHT22;42455;51.660;5.824;2024-01-25T05:38:55;7.5;95.0
45383;DHT22;42455;51.660;5.824;2024-01-25T05:44:02;7.5;95.0
45383;DHT22;42455;51.660;5.824;2024-01-25T05:49:08;7.4;95.0
45383;DHT22;42455;51.660;5.824;2024-01-25T05:54:14;7.4;95.0
45383;DHT22;42455;51.660;5.824;2024-01-25T05:59:20;7.4;95.0
45383;DHT22;42455;51.660;5.824;2024-01-25T06:04:27;7.3;95.0
45383;DHT22;42455;51.660;5.824;2024-01-25T06:09:33;7.3;95.0
45383;DHT22;42455;51.660;5.824;2024-01-25T06:14:39;7.3;95.0
45383;DHT22;42455;51.660;5.824;2024-01-25T06:19:45;7.2;95.0
45383;DHT22;42455;51.660;5.824;2024-01-25T06:24:51;7.2;95.0
45383;DHT22;42455;51.660;5.824;2024-01-25T06:29:58;7.1;95.0
45383;DHT22;42455;51.660;5.824;2024-01-25T06:35:04;7.1;95.0
45383;DHT22;42455;51.660;5.824;2024-01-25T06:40:11;7.1;95.5
45383;DHT22;42455;51.660;5.824;2024-01-25T06:45:16;7.0;95.0
45383;DHT22;42455;51.660;5.824;2024-01-25T06:50:22;7.0;95.5
45383;DHT22;42455;51.660;5.824;2024-01-25T06:55:29;6.9;95.5
45383;DHT22;42455;51.660;5.824;2024-01-25T07:00:34;6.9;95.5
45383;DHT22;42455;51.660;5.824;2024-01-25T07:05:40;6.8;95.5
45383;DHT22;42455;51.660;5.824;2024-01-25T07:10:46;6.8;95.5
45383;DHT22;42455;51.660;5.824;2024-01-25T07:15:52;6.8;95.5
45383;DHT22;42455;51.660;5.824;2024-01-25T07:20:59;6.7;95.5
45383;DHT22;42455;51.660;5.824;2024-01-25T07:26:05;6.7;95.5
45383;DHT22;42455;51.660;5.824;2024-01-25T07:31:11;6.7;95.5
45383;DHT22;42455;51.660;5.824;2024-01-25T07:36:17;6.7;96.0
45383;DHT22;42455;51.660;5.824;2024-01-25T07:41:23;6.6;96.0
45383;DHT22;42455;51.660;5.824;2024-01-25T07:46:30;6.6;96.0
45383;DHT22;42455;51.660;5.824;2024-01-25T07:51:36;6.6;96.0
45383;DHT22;42455;51.660;5.824;2024-01-25T07:56:42;6.6;96.0
45383;DHT22;42455;51.660;5.824;2024-01-25T08:01:48;6.7;96.0
45383;DHT22;42455;51.660;5.824;2024-01-25T08:06:55;6.6;96.0
45383;DHT22;42455;51.660;5.824;2024-01-25T08:12:01;6.7;96.5
45383;DHT22;42455;51.660;5.824;2024-01-25T08:17:07;6.7;96.5
45383;DHT22;42455;51.660;5.824;2024-01-25T08:22:13;6.8;96.5
45383;DHT22;42455;51.660;5.824;2024-01-25T08:27:20;6.8;96.5
45383;DHT22;42455;51.660;5.824;2024-01-25T08:32:26;6.9;96.5
45383;DHT22;42455;51.660;5.824;2024-01-25T08:37:32;6.9;97.0
45383;DHT22;42455;51.660;5.824;2024-01-25T08:42:38;7.0;97.0
45383;DHT22;42455;51.660;5.824;2024-01-25T08:47:44;7.0;97.0
45383;DHT22;42455;51.660;5.824;2024-01-25T08:52:50;7.1;97.0
45383;DHT22;42455;51.660;5.824;2024-01-25T08:57:57;7.1;97.0
45383;DHT22;42455;51.660;5.824;2024-01-25T09:03:03;7.2;97.0
45383;DHT22;42455;51.660;5.824;2024-01-25T09:08:09;7.3;97.0
45383;DHT22;42455;51.660;5.824;2024-01-25T09:13:15;7.3;97.5
45383;DHT22;42455;51.660;5.824;2024-01-25T09:18:21;7.4;97.5
45383;DHT22;42455;51.660;5.824;2024-01-25T09:23:28;7.5;97.5
45383;DHT22;42455;51.660;5.824;2024-01-25T09:28:34;7.6;97.5
45383;DHT22;42455;51.660;5.824;2024-01-25T09:33:40;7.7;97.5
45383;DHT22;42455;51.660;5.824;2024-01-25T09:38:46;7.8;97.5
45383;DHT22;42455;51.660;5.824;2024-01-25T09:43:52;7.9;97.5
45383;DHT22;42455;51.660;5.824;2024-01-25T09:48:59;8.1;98.0
45383;DHT22;42455;51.660;5.824;2024-01-25T09:54:05;8.2;98.0
45383;DHT22;42455;51.660;5.824;2024-01-25T09:59:11;8.3;98.0
45383;DHT22;42455;51.660;5.824;2024-01-25T10:04:17;8.4;98.0
45383;DHT22;42455;51.660;5.824;2024-01-25T10:09:23;8.6;98.0
45383;DHT22;42455;51.660;5.824;2024-01-25T10:14:30;8.7;98.0
45383;DHT22;42455;51.660;5.824;2024-01-25T10:19:36;8.8;98.0
45383;DHT22;42455;51.660;5.824;2024-01-25T10:24:42;8.9;98.0
45383;DHT22;42455;51.660;5.824;2024-01-25T10:29:48;9.0;98.0
45383;DHT22;42455;51.660;5.824;2024-01-25T10:34:55;9.1;98.0
45383;DHT22;42455;51.660;5.824;2024-01-25T10:40:01;9.2;98.0
45383;DHT22;42455;51.660;5.824;2024-01-25T10:45:07;9.3;97.5
45383;DHT22;42455;51.660;5.824;2024-01-25T10:50:13;9.3;97.5
45383;DHT22;42455;51.660;5.824;2024-01-25T10:55:20;9.4;97.5
45383;DHT22;42455;51.660;5.824;2024-01-25T11:00:26;9.5;97.5
45383;DHT22;42455;51.660;5.824;2024-01-25T11:05:32;9.6;97.5
45383;DHT22;42455;51.660;5.824;2024-01-25T11:10:38;9.7;97.5
45383;DHT22;42455;51.660;5.824;2024-01-25T11:15:44;9.8;97.5
45383;DHT22;42455;51.660;5.824;2024-01-25T11:20:50;9.9;97.5
45383;DHT22;42455;51.660;5.824;2024-01-25T11:25:57;10.0;97.5
45383;DHT22;42455;51.660;5.824;2024-01-25T11:31:03;10.1;97.5
45383;DHT22;42455;51.660;5.824;2024-01-25T11:36:09;10.2;97.0
45383;DHT22;42455;51.660;5.824;2024-01-25T11:41:15;10.2;97.0
45383;DHT22;42455;51.660;5.824;2024-01-25T11:46:22;10.3;97.0
45383;DHT22;42455;51.660;5.824;2024-01-25T11:51:28;10.3;96.5
45383;DHT22;42455;51.660;5.824;2024-01-25T11:56:37;10.4;96.5
45383;DHT22;42455;51.660;5.824;2024-01-25T12:01:40;10.5;96.5
45383;DHT22;42455;51.660;5.824;2024-01-25T12:06:47;10.5;96.5
45383;DHT22;42455;51.660;5.824;2024-01-25T12:11:52;10.5;96.5
45383;DHT22;42455;51.660;5.824;2024-01-25T12:16:59;10.6;96.5
45383;DHT22;42455;51.660;5.824;2024-01-25T12:22:05;10.7;96.5
45383;DHT22;42455;51.660;5.824;2024-01-25T12:27:11;10.7;96.5
45383;DHT22;42455;51.660;5.824;2024-01-25T12:32:16;10.8;96.0
45383;DHT22;42455;51.660;5.824;2024-01-25T12:37:23;10.8;96.0
45383;DHT22;42455;51.660;5.824;2024-01-25T12:42:29;10.8;96.0
45383;DHT22;42455;51.660;5.824;2024-01-25T12:47:35;10.8;96.0
45383;DHT22;42455;51.660;5.824;2024-01-25T12:52:41;10.7;96.0
45383;DHT22;42455;51.660;5.824;2024-01-25T12:57:47;10.7;96.0
45383;DHT22;42455;51.660;5.824;2024-01-25T13:02:54;10.7;96.0
45383;DHT22;42455;51.660;5.824;2024-01-25T13:07:59;10.7;96.0
45383;DHT22;42455;51.660;5.824;2024-01-25T13:13:05;10.7;96.0
45383;DHT22;42455;51.660;5.824;2024-01-25T13:18:11;10.7;96.0
45383;DHT22;42455;51.660;5.824;2024-01-25T13:23:17;10.7;96.0
45383;DHT22;42455;51.660;5.824;2024-01-25T13:28:24;10.7;96.5
45383;DHT22;42455;51.660;5.824;2024-01-25T13:33:30;10.7;96.5
45383;DHT22;42455;51.660;5.824;2024-01-25T13:38:36;10.8;96.5
45383;DHT22;42455;51.660;5.824;2024-01-25T13:43:42;10.8;96.5
45383;DHT22;42455;51.660;5.824;2024-01-25T13:48:48;10.8;96.0
45383;DHT22;42455;51.660;5.824;2024-01-25T13:53:55;10.8;96.0
45383;DHT22;42455;51.660;5.824;2024-01-25T13:59:01;10.8;96.0
45383;DHT22;42455;51.660;5.824;2024-01-25T14:04:07;10.9;96.0
45383;DHT22;42455;51.660;5.824;2024-01-25T14:09:13;10.9;96.0
45383;DHT22;42455;51.660;5.824;2024-01-25T14:14:19;10.9;96.0
45383;DHT22;42455;51.660;5.824;2024-01-25T14:19:26;10.9;95.5
45383;DHT22;42455;51.660;5.824;2024-01-25T14:24:32;10.9;95.5
45383;DHT22;42455;51.660;5.824;2024-01-25T14:29:38;10.9;95.5
45383;DHT22;42455;51.660;5.824;2024-01-25T14:34:44;10.8;95.5
45383;DHT22;42455;51.660;5.824;2024-01-25T14:39:50;10.8;95.5
45383;DHT22;42455;51.660;5.824;2024-01-25T14:44:57;10.8;95.5
45383;DHT22;42455;51.660;5.824;2024-01-25T14:50:03;10.8;95.5
45383;DHT22;42455;51.660;5.824;2024-01-25T14:55:09;10.8;95.5
45383;DHT22;42455;51.660;5.824;2024-01-25T15:00:15;10.8;95.5
45383;DHT22;42455;51.660;5.824;2024-01-25T15:05:22;10.8;95.5
45383;DHT22;42455;51.660;5.824;2024-01-25T15:10:28;10.8;96.0
45383;DHT22;42455;51.660;5.824;2024-01-25T15:15:34;10.7;96.0
45383;DHT22;42455;51.660;5.824;2024-01-25T15:20:40;10.7;96.0
45383;DHT22;42455;51.660;5.824;2024-01-25T15:25:46;10.7;96.0
45383;DHT22;42455;51.660;5.824;2024-01-25T15:30:53;10.7;96.0
45383;DHT22;42455;51.660;5.824;2024-01-25T15:35:59;10.7;96.0
45383;DHT22;42455;51.660;5.824;2024-01-25T15:41:05;10.7;96.5
45383;DHT22;42455;51.660;5.824;2024-01-25T15:46:11;10.7;96.5
45383;DHT22;42455;51.660;5.824;2024-01-25T15:51:18;10.7;96.5
45383;DHT22;42455;51.660;5.824;2024-01-25T15:56:24;10.6;96.5
45383;DHT22;42455;51.660;5.824;2024-01-25T16:01:30;10.6;96.5
45383;DHT22;42455;51.660;5.824;2024-01-25T16:06:36;10.6;97.0
45383;DHT22;42455;51.660;5.824;2024-01-25T16:11:42;10.6;97.0
45383;DHT22;42455;51.660;5.824;2024-01-25T16:16:48;10.6;97.0
45383;DHT22;42455;51.660;5.824;2024-01-25T16:21:55;10.5;97.0
45383;DHT22;42455;51.660;5.824;2024-01-25T16:27:01;10.5;97.5
45383;DHT22;42455;51.660;5.824;2024-01-25T16:32:07;10.5;97.5
45383;DHT22;42455;51.660;5.824;2024-01-25T16:37:13;10.5;97.5
45383;DHT22;42455;51.660;5.824;2024-01-25T16:42:19;10.5;97.5
45383;DHT22;42455;51.660;5.824;2024-01-25T16:47:26;10.5;98.0
45383;DHT22;42455;51.660;5.824;2024-01-25T16:52:32;10.5;98.0
45383;DHT22;42455;51.660;5.824;2024-01-25T16:57:38;10.5;98.0
45383;DHT22;42455;51.660;5.824;2024-01-25T17:02:44;10.6;98.0
45383;DHT22;42455;51.660;5.824;2024-01-25T17:07:51;10.6;98.5
45383;DHT22;42455;51.660;5.824;2024-01-25T17:12:57;10.6;98.5
45383;DHT22;42455;51.660;5.824;2024-01-25T17:18:03;10.6;98.5
45383;DHT22;42455;51.660;5.824;2024-01-25T17:23:09;10.7;98.5
45383;DHT22;42455;51.660;5.824;2024-01-25T17:28:15;10.7;98.5
45383;DHT22;42455;51.660;5.824;2024-01-25T17:33:22;10.7;98.5
45383;DHT22;42455;51.660;5.824;2024-01-25T17:38:28;10.8;98.5
45383;DHT22;42455;51.660;5.824;2024-01-25T17:43:34;10.8;98.5
45383;DHT22;42455;51.660;5.824;2024-01-25T17:48:41;10.8;98.5
45383;DHT22;42455;51.660;5.824;2024-01-25T17:53:46;10.9;98.5
45383;DHT22;42455;51.660;5.824;2024-01-25T17:58:53;10.9;98.5
45383;DHT22;42455;51.660;5.824;2024-01-25T18:03:59;10.9;98.5
45383;DHT22;42455;51.660;5.824;2024-01-25T18:09:05;11.0;98.5
45383;DHT22;42455;51.660;5.824;2024-01-25T18:14:11;11.0;98.5
45383;DHT22;42455;51.660;5.824;2024-01-25T18:19:17;11.1;98.5
45383;DHT22;42455;51.660;5.824;2024-01-25T18:24:24;11.1;98.5
45383;DHT22;42455;51.660;5.824;2024-01-25T18:29:30;11.1;98.5
45383;DHT22;42455;51.660;5.824;2024-01-25T18:34:36;11.2;98.5
45383;DHT22;42455;51.660;5.824;2024-01-25T18:39:41;11.2;98.5
45383;DHT22;42455;51.660;5.824;2024-01-25T18:44:47;11.2;98.5
45383;DHT22;42455;51.660;5.824;2024-01-25T18:49:54;11.3;98.5
45383;DHT22;42455;51.660;5.824;2024-01-25T18:55:00;11.3;98.5
45383;DHT22;42455;51.660;5.824;2024-01-25T19:00:07;11.3;98.5
45383;DHT22;42455;51.660;5.824;2024-01-25T19:05:13;11.3;98.5
45383;DHT22;42455;51.660;5.824;2024-01-25T19:10:19;11.3;98.5
45383;DHT22;42455;51.660;5.824;2024-01-25T19:15:25;11.4;98.5
45383;DHT22;42455;51.660;5.824;2024-01-25T19:25:37;11.4;98.5
45383;DHT22;42455;51.660;5.824;2024-01-25T19:30:43;11.4;98.5
45383;DHT22;42455;51.660;5.824;2024-01-25T19:35:50;11.5;98.5
45383;DHT22;42455;51.660;5.824;2024-01-25T19:40:56;11.5;98.5
45383;DHT22;42455;51.660;5.824;2024-01-25T19:46:02;11.5;98.5
45383;DHT22;42455;51.660;5.824;2024-01-25T19:51:08;11.6;98.5
45383;DHT22;42455;51.660;5.824;2024-01-25T19:56:15;11.6;98.5
45383;DHT22;42455;51.660;5.824;2024-01-25T20:01:21;11.6;98.5
45383;DHT22;42455;51.660;5.824;2024-01-25T20:06:27;11.6;98.5
45383;DHT22;42455;51.660;5.824;2024-01-25T20:11:32;11.7;98.5
45383;DHT22;42455;51.660;5.824;2024-01-25T20:16:37;11.7;98.5
45383;DHT22;42455;51.660;5.824;2024-01-25T20:21:44;11.7;98.5
45383;DHT22;42455;51.660;5.824;2024-01-25T20:26:50;11.7;98.5
45383;DHT22;42455;51.660;5.824;2024-01-25T20:31:56;11.7;98.5
45383;DHT22;42455;51.660;5.824;2024-01-25T20:37:02;11.8;98.5
45383;DHT22;42455;51.660;5.824;2024-01-25T20:42:08;11.8;98.5
45383;DHT22;42455;51.660;5.824;2024-01-25T20:47:15;11.8;98.5
45383;DHT22;42455;51.660;5.824;2024-01-25T20:52:21;11.8;98.5
45383;DHT22;42455;51.660;5.824;2024-01-25T21:02:33;11.9;98.5
45383;DHT22;42455;51.660;5.824;2024-01-25T21:07:39;11.9;98.5
45383;DHT22;42455;51.660;5.824;2024-01-25T21:12:46;11.9;98.5
45383;DHT22;42455;51.660;5.824;2024-01-25T21:17:52;11.9;98.5
45383;DHT22;42455;51.660;5.824;2024-01-25T21:22:58;11.9;98.5
45383;DHT22;42455;51.660;5.824;2024-01-25T21:28:04;12.0;98.5
45383;DHT22;42455;51.660;5.824;2024-01-25T21:33:11;12.0;98.5
45383;DHT22;42455;51.660;5.824;2024-01-25T21:38:17;12.0;98.5
45383;DHT22;42455;51.660;5.824;2024-01-25T21:43:23;12.0;98.5
45383;DHT22;42455;51.660;5.824;2024-01-25T21:48:29;12.1;98.5
45383;DHT22;42455;51.660;5.824;2024-01-25T21:53:36;12.1;98.5
45383;DHT22;42455;51.660;5.824;2024-01-25T21:58:41;12.1;98.5
45383;DHT22;42455;51.660;5.824;2024-01-25T22:03:47;12.1;98.5
45383;DHT22;42455;51.660;5.824;2024-01-25T22:08:52;12.2;98.5
45383;DHT22;42455;51.660;5.824;2024-01-25T22:13:58;12.2;98.5
45383;DHT22;42455;51.660;5.824;2024-01-25T22:19:04;12.2;98.5
45383;DHT22;42455;51.660;5.824;2024-01-25T22:24:11;12.2;98.5
45383;DHT22;42455;51.660;5.824;2024-01-25T22:29:17;12.3;98.5
45383;DHT22;42455;51.660;5.824;2024-01-25T22:34:23;12.3;98.5
45383;DHT22;42455;51.660;5.824;2024-01-25T22:39:29;12.3;98.5
45383;DHT22;42455;51.660;5.824;2024-01-25T22:44:36;12.3;98.5
45383;DHT22;42455;51.660;5.824;2024-01-25T22:49:42;12.3;98.5
45383;DHT22;42455;51.660;5.824;2024-01-25T22:54:48;12.3;98.5
45383;DHT22;42455;51.660;5.824;2024-01-25T22:59:54;12.4;98.5
45383;DHT22;42455;51.660;5.824;2024-01-25T23:05:00;12.4;98.5
45383;DHT22;42455;51.660;5.824;2024-01-25T23:10:07;12.4;98.5
45383;DHT22;42455;51.660;5.824;2024-01-25T23:15:13;12.4;98.5
45383;DHT22;42455;51.660;5.824;2024-01-25T23:20:19;12.4;98.5
45383;DHT22;42455;51.660;5.824;2024-01-25T23:25:25;12.4;98.5
45383;DHT22;42455;51.660;5.824;2024-01-25T23:30:31;12.4;98.5
45383;DHT22;42455;51.660;5.824;2024-01-25T23:35:37;12.4;98.5
45383;DHT22;42455;51.660;5.824;2024-01-25T23:40:44;12.4;98.5
45383;DHT22;42455;51.660;5.824;2024-01-25T23:45:50;12.4;98.5
45383;DHT22;42455;51.660;5.824;2024-01-25T23:50:56;12.4;98.5
45383;DHT22;42455;51.660;5.824;2024-01-25T23:56:02;12.4;98.5
